sensor_id;sensor_type;location;lat;lon;timestamp;pressure;altitude;pressure_sealevel;temperature;humidity
17950;BME280;9100;48.700;9.316;2022-07-23T00:00:29;97800.2;;;26.19;71.026
17950;BME280;9100;48.700;9.316;2022-07-23T00:01:29;97793.4;;;26.18;71.19
17950;BME280;9100;48.700;9.316;2022-07-23T00:02:29;97796;;;26.18;71.796
17950;BME280;9100;48.700;9.316;2022-07-23T00:03:29;97792.9;;;26.16;71.893
17950;BME280;9100;48.700;9.316;2022-07-23T00:04:07;97789.20000000001;;;26.17;71.232
17950;BME280;9100;48.700;9.316;2022-07-23T00:04:29;97793.4;;;26.18;70.992
17950;BME280;9100;48.700;9.316;2022-07-23T00:05:29;97797.79999999999;;;26.17;70.529
17950;BME280;9100;48.700;9.316;2022-07-23T00:06:29;97779;;;26.15;69.458
17950;BME280;9100;48.700;9.316;2022-07-23T00:07:29;97776.4;;;26.15;69.711
17950;BME280;9100;48.700;9.316;2022-07-23T00:08:29;97775.59999999999;;;26.15;69.467
17950;BME280;9100;48.700;9.316;2022-07-23T00:09:06;97771.40000000001;;;26.14;68.981
17950;BME280;9100;48.700;9.316;2022-07-23T00:09:29;97766.9;;;26.14;69.126
17950;BME280;9100;48.700;9.316;2022-07-23T00:10:29;97742.2;;;26.01;68.798
17950;BME280;9100;48.700;9.316;2022-07-23T00:11:29;97773.7;;;26.15;68.499
17950;BME280;9100;48.700;9.316;2022-07-23T00:12:29;97765.09999999999;;;26.15;68.476
17950;BME280;9100;48.700;9.316;2022-07-23T00:13:29;97765.09999999999;;;26.15;67.605
17950;BME280;9100;48.700;9.316;2022-07-23T00:14:06;97770.3;;;26.15;67.562
17950;BME280;9100;48.700;9.316;2022-07-23T00:14:29;97773.7;;;26.15;68.103
17950;BME280;9100;48.700;9.316;2022-07-23T00:15:29;97774.5;;;26.16;67.894
17950;BME280;9100;48.700;9.316;2022-07-23T00:16:29;97776.8;;;26.17;68.635
17950;BME280;9100;48.700;9.316;2022-07-23T00:17:29;97788.4;;;26.16;68.908
17950;BME280;9100;48.700;9.316;2022-07-23T00:18:29;97777.09999999999;;;26.16;70.174
17950;BME280;9100;48.700;9.316;2022-07-23T00:19:06;97779.8;;;26.16;69.777
17950;BME280;9100;48.700;9.316;2022-07-23T00:19:29;97773.40000000001;;;26.17;70.164
17950;BME280;9100;48.700;9.316;2022-07-23T00:20:29;97767.4;;;26.16;70.01
17950;BME280;9100;48.700;9.316;2022-07-23T00:21:29;97755.6;;;26.14;69.036
17950;BME280;9100;48.700;9.316;2022-07-23T00:22:29;97747;;;26.13;68.814
17950;BME280;9100;48.700;9.316;2022-07-23T00:23:29;97739.70000000001;;;26.1;68.745
17950;BME280;9100;48.700;9.316;2022-07-23T00:24:07;97743.7;;;26.08;68.521
17950;BME280;9100;48.700;9.316;2022-07-23T00:24:29;97735;;;26.07;68.199
17950;BME280;9100;48.700;9.316;2022-07-23T00:25:29;97749.2;;;26.06;67.868
17950;BME280;9100;48.700;9.316;2022-07-23T00:26:29;97743.1;;;26.05;68.265
17950;BME280;9100;48.700;9.316;2022-07-23T00:27:29;97745.5;;;26.02;68.61
17950;BME280;9100;48.700;9.316;2022-07-23T00:28:29;97746.1;;;25.99;67.582
17950;BME280;9100;48.700;9.316;2022-07-23T00:29:07;97745.3;;;25.98;67.515
17950;BME280;9100;48.700;9.316;2022-07-23T00:29:29;97743.2;;;26;68.057
17950;BME280;9100;48.700;9.316;2022-07-23T00:30:29;97744.3;;;25.99;68.211
17950;BME280;9100;48.700;9.316;2022-07-23T00:31:29;97748.7;;;25.99;67.593
17950;BME280;9100;48.700;9.316;2022-07-23T00:32:29;97755.8;;;25.98;67.878
17950;BME280;9100;48.700;9.316;2022-07-23T00:33:29;97751.59999999999;;;25.97;68.362
17950;BME280;9100;48.700;9.316;2022-07-23T00:34:06;97762.90000000001;;;25.98;68.561
17950;BME280;9100;48.700;9.316;2022-07-23T00:34:29;97762.59999999999;;;25.99;68.586
17950;BME280;9100;48.700;9.316;2022-07-23T00:35:30;97750.3;;;26;68.365
17950;BME280;9100;48.700;9.316;2022-07-23T00:36:29;97752.09999999999;;;25.99;68.905
17950;BME280;9100;48.700;9.316;2022-07-23T00:37:29;97746.1;;;25.99;69.091
17950;BME280;9100;48.700;9.316;2022-07-23T00:38:29;97741.09999999999;;;25.97;68.297
17950;BME280;9100;48.700;9.316;2022-07-23T00:39:06;97747.90000000001;;;25.98;68.781
17950;BME280;9100;48.700;9.316;2022-07-23T00:39:29;97739.3;;;25.98;69.012
17950;BME280;9100;48.700;9.316;2022-07-23T00:40:29;97744.3;;;25.99;69.39
17950;BME280;9100;48.700;9.316;2022-07-23T00:41:29;97741.6;;;25.99;70.116
17950;BME280;9100;48.700;9.316;2022-07-23T00:42:30;97735.90000000001;;;25.97;70.069
17950;BME280;9100;48.700;9.316;2022-07-23T00:43:29;97735.90000000001;;;25.97;70.51
17950;BME280;9100;48.700;9.316;2022-07-23T00:44:14;97741.09999999999;;;25.97;70.829
17950;BME280;9100;48.700;9.316;2022-07-23T00:44:29;97734.1;;;25.98;70.873
17950;BME280;9100;48.700;9.316;2022-07-23T00:45:29;97732.2;;;25.98;70.664
17950;BME280;9100;48.700;9.316;2022-07-23T00:46:29;97738.5;;;25.97;70.796
17950;BME280;9100;48.700;9.316;2022-07-23T00:47:29;97729.1;;;25.96;71.542
17950;BME280;9100;48.700;9.316;2022-07-23T00:48:29;97731.2;;;25.94;71.208
17950;BME280;9100;48.700;9.316;2022-07-23T00:49:07;97724.1;;;25.95;71.111
17950;BME280;9100;48.700;9.316;2022-07-23T00:49:29;97720.7;;;25.94;71.264
17950;BME280;9100;48.700;9.316;2022-07-23T00:50:29;97711;;;25.95;71.882
17950;BME280;9100;48.700;9.316;2022-07-23T00:51:29;97717.6;;;25.92;70.963
17950;BME280;9100;48.700;9.316;2022-07-23T00:52:29;97724.2;;;25.9;71.421
17950;BME280;9100;48.700;9.316;2022-07-23T00:53:29;97726.3;;;25.88;71.704
17950;BME280;9100;48.700;9.316;2022-07-23T00:54:06;97721;;;25.88;72.155
17950;BME280;9100;48.700;9.316;2022-07-23T00:54:29;97718.4;;;25.88;71.638
17950;BME280;9100;48.700;9.316;2022-07-23T00:55:29;97722.90000000001;;;25.87;71.902
17950;BME280;9100;48.700;9.316;2022-07-23T00:56:29;97728.4;;;25.86;71.382
17950;BME280;9100;48.700;9.316;2022-07-23T00:57:29;97718.2;;;25.84;70.841
17950;BME280;9100;48.700;9.316;2022-07-23T00:58:29;97695.7;;;25.83;71.016
17950;BME280;9100;48.700;9.316;2022-07-23T00:59:07;97685.2;;;25.83;70.035
17950;BME280;9100;48.700;9.316;2022-07-23T00:59:29;97681.5;;;25.84;69.861
17950;BME280;9100;48.700;9.316;2022-07-23T01:00:29;97683.3;;;25.84;69.232
17950;BME280;9100;48.700;9.316;2022-07-23T01:01:29;97694.6;;;25.84;69.091
17950;BME280;9100;48.700;9.316;2022-07-23T01:02:29;97725.5;;;25.82;69.517
17950;BME280;9100;48.700;9.316;2022-07-23T01:03:29;97733.7;;;25.81;70.339
17950;BME280;9100;48.700;9.316;2022-07-23T01:04:07;97733.2;;;25.79;69.896
17950;BME280;9100;48.700;9.316;2022-07-23T01:04:29;97732.9;;;25.8;69.624
17950;BME280;9100;48.700;9.316;2022-07-23T01:05:29;97741;;;25.79;69.225
17950;BME280;9100;48.700;9.316;2022-07-23T01:06:29;97736.6;;;25.74;67.336
17950;BME280;9100;48.700;9.316;2022-07-23T01:07:29;97739.5;;;25.73;68.313
17950;BME280;9100;48.700;9.316;2022-07-23T01:08:29;97750;;;25.73;67.873
17950;BME280;9100;48.700;9.316;2022-07-23T01:09:07;97741.6;;;25.71;67.868
17950;BME280;9100;48.700;9.316;2022-07-23T01:09:29;97740.8;;;25.7;67.979
17950;BME280;9100;48.700;9.316;2022-07-23T01:10:29;97740.8;;;25.7;68.584
17950;BME280;9100;48.700;9.316;2022-07-23T01:11:29;97734;;;25.69;67.416
17950;BME280;9100;48.700;9.316;2022-07-23T01:12:29;97734;;;25.69;67.702
17950;BME280;9100;48.700;9.316;2022-07-23T01:13:29;97728.3;;;25.67;68.172
17950;BME280;9100;48.700;9.316;2022-07-23T01:14:07;97724.1;;;25.66;68.731
17950;BME280;9100;48.700;9.316;2022-07-23T01:14:29;97721.2;;;25.68;68.603
17950;BME280;9100;48.700;9.316;2022-07-23T01:15:29;97721.2;;;25.68;68.316
17950;BME280;9100;48.700;9.316;2022-07-23T01:16:29;97716;;;25.68;67.898
17950;BME280;9100;48.700;9.316;2022-07-23T01:17:29;97711.8;;;25.67;67.797
17950;BME280;9100;48.700;9.316;2022-07-23T01:18:29;97725.09999999999;;;25.65;68.026
17950;BME280;9100;48.700;9.316;2022-07-23T01:19:07;97721;;;25.64;68.08
17950;BME280;9100;48.700;9.316;2022-07-23T01:19:29;97718.1;;;25.66;67.973
17950;BME280;9100;48.700;9.316;2022-07-23T01:20:29;97722.2;;;25.67;68.292
17950;BME280;9100;48.700;9.316;2022-07-23T01:21:29;97722.5;;;25.65;68.092
17950;BME280;9100;48.700;9.316;2022-07-23T01:22:29;97718.9;;;25.66;67.929
17950;BME280;9100;48.700;9.316;2022-07-23T01:23:29;97715;;;25.64;67.684
17950;BME280;9100;48.700;9.316;2022-07-23T01:24:07;97713.09999999999;;;25.64;67.673
17950;BME280;9100;48.700;9.316;2022-07-23T01:24:29;97713.9;;;25.65;67.563
17950;BME280;9100;48.700;9.316;2022-07-23T01:25:29;97709.7;;;25.64;67.903
17950;BME280;9100;48.700;9.316;2022-07-23T01:26:29;97704.7;;;25.62;68.682
17950;BME280;9100;48.700;9.316;2022-07-23T01:27:29;97702.4;;;25.61;68.723
17950;BME280;9100;48.700;9.316;2022-07-23T01:28:29;97693;;;25.6;69.073
17950;BME280;9100;48.700;9.316;2022-07-23T01:29:07;97690.59999999999;;;25.58;69.335
17950;BME280;9100;48.700;9.316;2022-07-23T01:29:29;97684.6;;;25.57;69.114
17950;BME280;9100;48.700;9.316;2022-07-23T01:30:29;97690.9;;;25.56;69.025
17950;BME280;9100;48.700;9.316;2022-07-23T01:31:29;97700.59999999999;;;25.56;68.649
17950;BME280;9100;48.700;9.316;2022-07-23T01:32:29;97691.2;;;25.55;69.629
17950;BME280;9100;48.700;9.316;2022-07-23T01:33:29;97700.09999999999;;;25.54;68.801
17950;BME280;9100;48.700;9.316;2022-07-23T01:34:07;97702.20000000001;;;25.52;68.93
17950;BME280;9100;48.700;9.316;2022-07-23T01:34:29;97692.7;;;25.51;68.984
17950;BME280;9100;48.700;9.316;2022-07-23T01:35:29;97701.59999999999;;;25.5;68.751
17950;BME280;9100;48.700;9.316;2022-07-23T01:36:29;97697.5;;;25.49;69.079
17950;BME280;9100;48.700;9.316;2022-07-23T01:37:29;97695.1;;;25.47;68.703
17950;BME280;9100;48.700;9.316;2022-07-23T01:38:29;97689.09999999999;;;25.47;68.834
17950;BME280;9100;48.700;9.316;2022-07-23T01:39:07;97683.90000000001;;;25.47;68.9
17950;BME280;9100;48.700;9.316;2022-07-23T01:39:29;97678.59999999999;;;25.47;68.845
17950;BME280;9100;48.700;9.316;2022-07-23T01:40:29;97673.40000000001;;;25.47;68.548
17950;BME280;9100;48.700;9.316;2022-07-23T01:41:29;97665.09999999999;;;25.45;68.413
17950;BME280;9100;48.700;9.316;2022-07-23T01:42:29;97661.40000000001;;;25.41;67.692
17950;BME280;9100;48.700;9.316;2022-07-23T01:43:29;97652.3;;;25.38;68.128
17950;BME280;9100;48.700;9.316;2022-07-23T01:44:07;97653.3;;;25.37;68.555
17950;BME280;9100;48.700;9.316;2022-07-23T01:44:29;97645.7;;;25.36;68.729
17950;BME280;9100;48.700;9.316;2022-07-23T01:45:29;97635.79999999999;;;25.33;68.308
17950;BME280;9100;48.700;9.316;2022-07-23T01:46:29;97634.3;;;25.32;68.295
17950;BME280;9100;48.700;9.316;2022-07-23T01:47:29;97640;;;25.29;68.708
17950;BME280;9100;48.700;9.316;2022-07-23T01:48:29;97647.1;;;25.28;68.795
17950;BME280;9100;48.700;9.316;2022-07-23T01:49:06;97645.6;;;25.27;69.343
17950;BME280;9100;48.700;9.316;2022-07-23T01:49:29;97648.2;;;25.27;69.024
17950;BME280;9100;48.700;9.316;2022-07-23T01:50:29;97659.90000000001;;;25.3;69.732
17950;BME280;9100;48.700;9.316;2022-07-23T01:51:29;97663.59999999999;;;25.29;69.071
17950;BME280;9100;48.700;9.316;2022-07-23T01:52:29;97681.9;;;25.29;69.577
17950;BME280;9100;48.700;9.316;2022-07-23T01:53:29;97713.3;;;25.29;70.61
17950;BME280;9100;48.700;9.316;2022-07-23T01:54:07;97728.2;;;25.28;70.708
17950;BME280;9100;48.700;9.316;2022-07-23T01:54:30;97728;;;25.3;71.217
17950;BME280;9100;48.700;9.316;2022-07-23T01:55:29;97735.79999999999;;;25.3;71.777
17950;BME280;9100;48.700;9.316;2022-07-23T01:56:29;97727.20000000001;;;25.29;71.677
17950;BME280;9100;48.700;9.316;2022-07-23T01:57:29;97732.7;;;25.28;71.223
17950;BME280;9100;48.700;9.316;2022-07-23T01:58:29;97724.1;;;25.27;71.124
17950;BME280;9100;48.700;9.316;2022-07-23T01:59:07;97708.4;;;25.27;70.706
17950;BME280;9100;48.700;9.316;2022-07-23T01:59:29;97703.09999999999;;;25.27;70.497
17950;BME280;9100;48.700;9.316;2022-07-23T02:00:29;97707.6;;;25.27;71.222
17950;BME280;9100;48.700;9.316;2022-07-23T02:01:29;97710.2;;;25.27;71.408
17950;BME280;9100;48.700;9.316;2022-07-23T02:02:29;97706.8;;;25.26;71.32
17950;BME280;9100;48.700;9.316;2022-07-23T02:03:29;97699.2;;;25.25;71.416
17950;BME280;9100;48.700;9.316;2022-07-23T02:04:07;97706;;;25.26;71.462
17950;BME280;9100;48.700;9.316;2022-07-23T02:04:29;97708.6;;;25.26;71.66
17950;BME280;9100;48.700;9.316;2022-07-23T02:05:29;97709.40000000001;;;25.26;71.243
17950;BME280;9100;48.700;9.316;2022-07-23T02:06:29;97708.6;;;25.26;71.836
17950;BME280;9100;48.700;9.316;2022-07-23T02:07:29;97702.9;;;25.24;72.063
17950;BME280;9100;48.700;9.316;2022-07-23T02:08:29;97702.4;;;25.22;71.708
17950;BME280;9100;48.700;9.316;2022-07-23T02:09:07;97694.5;;;25.22;71.95
17950;BME280;9100;48.700;9.316;2022-07-23T02:09:29;97696.40000000001;;;25.21;72.445
17950;BME280;9100;48.700;9.316;2022-07-23T02:10:29;97703.4;;;25.21;72.41
17950;BME280;9100;48.700;9.316;2022-07-23T02:11:29;97704.5;;;25.2;72.596
17950;BME280;9100;48.700;9.316;2022-07-23T02:12:29;97701.59999999999;;;25.21;72.676
17950;BME280;9100;48.700;9.316;2022-07-23T02:13:29;97701.09999999999;;;25.19;72.75
17950;BME280;9100;48.700;9.316;2022-07-23T02:14:07;97702.9;;;25.19;72.869
17950;BME280;9100;48.700;9.316;2022-07-23T02:14:29;97699.3;;;25.2;73.003
17950;BME280;9100;48.700;9.316;2022-07-23T02:15:29;97702.4;;;25.22;73.039
17950;BME280;9100;48.700;9.316;2022-07-23T02:16:29;97699.3;;;25.2;72.805
17950;BME280;9100;48.700;9.316;2022-07-23T02:17:29;97706.6;;;25.18;72.472
17950;BME280;9100;48.700;9.316;2022-07-23T02:18:29;97649.7;;;24.79;72.321
17950;BME280;9100;48.700;9.316;2022-07-23T02:19:06;97711.8;;;25.13;72.529
17950;BME280;9100;48.700;9.316;2022-07-23T02:19:29;97710;;;25.13;72.541
17950;BME280;9100;48.700;9.316;2022-07-23T02:20:29;97714;;;25.1;72.802
17950;BME280;9100;48.700;9.316;2022-07-23T02:21:29;97703;;;25.08;73.392
17950;BME280;9100;48.700;9.316;2022-07-23T02:22:29;97708.2;;;25.08;73.469
17950;BME280;9100;48.700;9.316;2022-07-23T02:23:29;97711.90000000001;;;25.07;73.533
17950;BME280;9100;48.700;9.316;2022-07-23T02:24:07;97705.1;;;25.06;73.606
17950;BME280;9100;48.700;9.316;2022-07-23T02:24:29;97714.5;;;25.07;73.742
17950;BME280;9100;48.700;9.316;2022-07-23T02:25:29;97714.8;;;25.06;73.882
17950;BME280;9100;48.700;9.316;2022-07-23T02:26:29;97712.40000000001;;;25.04;74.131
17950;BME280;9100;48.700;9.316;2022-07-23T02:27:29;97712.40000000001;;;25.04;74.449
17950;BME280;9100;48.700;9.316;2022-07-23T02:28:29;97723.90000000001;;;25.03;74.779
17950;BME280;9100;48.700;9.316;2022-07-23T02:29:07;97726.5;;;25.03;74.9
17950;BME280;9100;48.700;9.316;2022-07-23T02:29:29;97728.09999999999;;;25.04;74.823
17950;BME280;9100;48.700;9.316;2022-07-23T02:30:29;97737.8;;;25.04;74.922
17950;BME280;9100;48.700;9.316;2022-07-23T02:31:30;97743;;;25.04;75.493
17950;BME280;9100;48.700;9.316;2022-07-23T02:32:30;97739.59999999999;;;25.03;75.89
17950;BME280;9100;48.700;9.316;2022-07-23T02:33:29;97743;;;25.04;76.164
17950;BME280;9100;48.700;9.316;2022-07-23T02:34:07;97743.8;;;25.04;76.01
17950;BME280;9100;48.700;9.316;2022-07-23T02:34:29;97746.1;;;25.06;75.947
17950;BME280;9100;48.700;9.316;2022-07-23T02:35:29;97746.1;;;25.06;75.903
17950;BME280;9100;48.700;9.316;2022-07-23T02:36:29;97754.3;;;25.04;75.273
17950;BME280;9100;48.700;9.316;2022-07-23T02:37:29;97753.5;;;25.04;75.725
17950;BME280;9100;48.700;9.316;2022-07-23T02:38:29;97755.3;;;25.03;75.9
17950;BME280;9100;48.700;9.316;2022-07-23T02:39:07;97757.9;;;25.03;76.164
17950;BME280;9100;48.700;9.316;2022-07-23T02:39:30;97759.5;;;25.04;76.219
17950;BME280;9100;48.700;9.316;2022-07-23T02:40:29;97755.3;;;25.03;76.56
17950;BME280;9100;48.700;9.316;2022-07-23T02:41:29;97762.59999999999;;;25.01;76.513
17950;BME280;9100;48.700;9.316;2022-07-23T02:42:29;97767.9;;;25.01;76.183
17950;BME280;9100;48.700;9.316;2022-07-23T02:43:29;97770;;;24.99;75.883
17950;BME280;9100;48.700;9.316;2022-07-23T02:44:07;97725.09999999999;;;24.67;75.903
17950;BME280;9100;48.700;9.316;2022-07-23T02:44:29;97779.4;;;25;75.992
17950;BME280;9100;48.700;9.316;2022-07-23T02:45:29;97775.2;;;24.99;75.707
17950;BME280;9100;48.700;9.316;2022-07-23T02:46:29;97775.5;;;24.98;75.956
17950;BME280;9100;48.700;9.316;2022-07-23T02:47:29;97780;;;24.97;76.077
17950;BME280;9100;48.700;9.316;2022-07-23T02:48:29;97784.7;;;24.95;76.621
17950;BME280;9100;48.700;9.316;2022-07-23T02:49:07;97787.3;;;24.95;76.709
17950;BME280;9100;48.700;9.316;2022-07-23T02:49:29;97788.09999999999;;;24.96;76.863
17950;BME280;9100;48.700;9.316;2022-07-23T02:50:29;97783.6;;;24.96;76.92
17950;BME280;9100;48.700;9.316;2022-07-23T02:51:29;97782.8;;;24.96;76.83
17950;BME280;9100;48.700;9.316;2022-07-23T02:52:29;97786.7;;;24.98;77.033
17950;BME280;9100;48.700;9.316;2022-07-23T02:53:29;97792;;;24.98;77.429
17950;BME280;9100;48.700;9.316;2022-07-23T02:54:07;97793.8;;;24.98;77.571
17950;BME280;9100;48.700;9.316;2022-07-23T02:54:29;97795.4;;;24.99;77.408
17950;BME280;9100;48.700;9.316;2022-07-23T02:55:29;97795.6;;;24.97;76.935
17950;BME280;9100;48.700;9.316;2022-07-23T02:56:30;97794.9;;;24.97;76.548
17950;BME280;9100;48.700;9.316;2022-07-23T02:57:29;97794.3;;;24.95;76.654
17950;BME280;9100;48.700;9.316;2022-07-23T02:58:29;97790.9;;;24.94;76.796
17950;BME280;9100;48.700;9.316;2022-07-23T02:59:07;97789.4;;;24.93;76.662
17950;BME280;9100;48.700;9.316;2022-07-23T02:59:29;97786.5;;;24.95;76.621
17950;BME280;9100;48.700;9.316;2022-07-23T03:00:29;97751.3;;;24.67;76.464
17950;BME280;9100;48.700;9.316;2022-07-23T03:01:29;97790.7;;;24.91;75.703
17950;BME280;9100;48.700;9.316;2022-07-23T03:02:29;97795.4;;;24.89;76.029
17950;BME280;9100;48.700;9.316;2022-07-23T03:03:29;97790.4;;;24.87;76.146
17950;BME280;9100;48.700;9.316;2022-07-23T03:04:07;97797;;;24.85;76.032
17950;BME280;9100;48.700;9.316;2022-07-23T03:04:29;97794.6;;;24.83;76.116
17950;BME280;9100;48.700;9.316;2022-07-23T03:05:29;97790.7;;;24.81;76.63
17950;BME280;9100;48.700;9.316;2022-07-23T03:06:29;97787.8;;;24.77;77.26
17950;BME280;9100;48.700;9.316;2022-07-23T03:07:29;97790.20000000001;;;24.74;78.177
17950;BME280;9100;48.700;9.316;2022-07-23T03:08:29;97787.8;;;24.72;78.898
17950;BME280;9100;48.700;9.316;2022-07-23T03:09:06;97792.3;;;24.72;78.657
17950;BME280;9100;48.700;9.316;2022-07-23T03:09:29;97793.1;;;24.72;78.877
17950;BME280;9100;48.700;9.316;2022-07-23T03:10:29;97797.5;;;24.72;78.58
17950;BME280;9100;48.700;9.316;2022-07-23T03:11:29;97797.5;;;24.72;78.394
17950;BME280;9100;48.700;9.316;2022-07-23T03:12:30;97795.2;;;24.7;78.467
17950;BME280;9100;48.700;9.316;2022-07-23T03:13:29;97802.70000000001;;;24.72;78.821
17950;BME280;9100;48.700;9.316;2022-07-23T03:14:07;97804.6;;;24.71;78.963
17950;BME280;9100;48.700;9.316;2022-07-23T03:14:29;97800.9;;;24.72;78.833
17950;BME280;9100;48.700;9.316;2022-07-23T03:15:30;97798.29999999999;;;24.72;78.733
17950;BME280;9100;48.700;9.316;2022-07-23T03:16:29;97797.79999999999;;;24.7;79.038
17950;BME280;9100;48.700;9.316;2022-07-23T03:17:29;97697.5;;;24.05;79.309
17950;BME280;9100;48.700;9.316;2022-07-23T03:18:29;97799.1;;;24.68;79.66
17950;BME280;9100;48.700;9.316;2022-07-23T03:19:07;97802.5;;;24.68;79.463
17950;BME280;9100;48.700;9.316;2022-07-23T03:19:30;97805.1;;;24.68;79.331
17950;BME280;9100;48.700;9.316;2022-07-23T03:20:29;97801.70000000001;;;24.68;79.759
17950;BME280;9100;48.700;9.316;2022-07-23T03:21:29;97797.2;;;24.68;80.363
17950;BME280;9100;48.700;9.316;2022-07-23T03:22:29;97792.8;;;24.69;80.945
17950;BME280;9100;48.700;9.316;2022-07-23T03:23:29;97788.4;;;24.69;80.771
17950;BME280;9100;48.700;9.316;2022-07-23T03:24:07;97793.6;;;24.69;80.672
17950;BME280;9100;48.700;9.316;2022-07-23T03:24:29;97790.7;;;24.71;80.136
17950;BME280;9100;48.700;9.316;2022-07-23T03:25:29;97788.09999999999;;;24.71;79.84
17950;BME280;9100;48.700;9.316;2022-07-23T03:26:29;97789.9;;;24.7;79.84
17950;BME280;9100;48.700;9.316;2022-07-23T03:27:30;97790.5;;;24.67;79.813
17950;BME280;9100;48.700;9.316;2022-07-23T03:28:29;97793.3;;;24.66;79.756
17950;BME280;9100;48.700;9.316;2022-07-23T03:29:07;97796.2;;;24.64;79.729
17950;BME280;9100;48.700;9.316;2022-07-23T03:29:29;97804.1;;;24.64;79.575
17950;BME280;9100;48.700;9.316;2022-07-23T03:30:29;97805.6;;;24.65;80.171
17950;BME280;9100;48.700;9.316;2022-07-23T03:31:30;97806.7;;;24.64;80.189
17950;BME280;9100;48.700;9.316;2022-07-23T03:32:29;97805.1;;;24.63;80.365
17950;BME280;9100;48.700;9.316;2022-07-23T03:33:29;97800.9;;;24.62;80.23
17950;BME280;9100;48.700;9.316;2022-07-23T03:34:07;97794.9;;;24.61;80.175
17950;BME280;9100;48.700;9.316;2022-07-23T03:34:29;97801.70000000001;;;24.62;80.44
17950;BME280;9100;48.700;9.316;2022-07-23T03:35:29;97798.29999999999;;;24.62;81.043
17950;BME280;9100;48.700;9.316;2022-07-23T03:36:29;97802.5;;;24.63;80.947
17950;BME280;9100;48.700;9.316;2022-07-23T03:37:29;97798.29999999999;;;24.62;80.702
17950;BME280;9100;48.700;9.316;2022-07-23T03:38:29;97796.8;;;24.61;81.196
17950;BME280;9100;48.700;9.316;2022-07-23T03:39:07;97793.6;;;24.59;80.962
17950;BME280;9100;48.700;9.316;2022-07-23T03:39:29;97798.90000000001;;;24.59;80.819
17950;BME280;9100;48.700;9.316;2022-07-23T03:40:29;97796.8;;;24.56;80.878
17950;BME280;9100;48.700;9.316;2022-07-23T03:41:29;97786.1;;;24.52;81.883
17950;BME280;9100;48.700;9.316;2022-07-23T03:42:29;97787.59999999999;;;24.48;82.381
17950;BME280;9100;48.700;9.316;2022-07-23T03:43:29;97786.8;;;24.43;82.974
17950;BME280;9100;48.700;9.316;2022-07-23T03:44:07;97789.5;;;24.43;83.006
17950;BME280;9100;48.700;9.316;2022-07-23T03:44:29;97787.09999999999;;;24.41;82.806
17950;BME280;9100;48.700;9.316;2022-07-23T03:45:29;97786.6;;;24.39;82.549
17950;BME280;9100;48.700;9.316;2022-07-23T03:46:29;97779.5;;;24.4;82.781
17950;BME280;9100;48.700;9.316;2022-07-23T03:47:29;97784.3;;;24.38;82.997
17950;BME280;9100;48.700;9.316;2022-07-23T03:48:29;97787.59999999999;;;24.38;83.524
17950;BME280;9100;48.700;9.316;2022-07-23T03:49:07;97782.4;;;24.38;83.667
17950;BME280;9100;48.700;9.316;2022-07-23T03:49:29;97784;;;24.39;84.009
17950;BME280;9100;48.700;9.316;2022-07-23T03:50:29;97789.20000000001;;;24.39;84.568
17950;BME280;9100;48.700;9.316;2022-07-23T03:51:29;97783.2;;;24.39;84.546
17950;BME280;9100;48.700;9.316;2022-07-23T03:52:29;97786.1;;;24.37;84.422
17950;BME280;9100;48.700;9.316;2022-07-23T03:53:29;97783.7;;;24.36;84.497
17950;BME280;9100;48.700;9.316;2022-07-23T03:54:07;97778.5;;;24.36;84.585
17950;BME280;9100;48.700;9.316;2022-07-23T03:54:29;97791.3;;;24.37;84.652
17950;BME280;9100;48.700;9.316;2022-07-23T03:55:29;97779.3;;;24.36;84.486
17950;BME280;9100;48.700;9.316;2022-07-23T03:56:29;97795.8;;;24.37;84.367
17950;BME280;9100;48.700;9.316;2022-07-23T03:57:30;97800.2;;;24.36;84.826
17950;BME280;9100;48.700;9.316;2022-07-23T03:58:29;97793.4;;;24.35;85.296
17950;BME280;9100;48.700;9.316;2022-07-23T03:59:07;97791.8;;;24.34;85.535
17950;BME280;9100;48.700;9.316;2022-07-23T03:59:29;97797.79999999999;;;24.35;85.537
17950;BME280;9100;48.700;9.316;2022-07-23T04:00:30;97795.2;;;24.35;85.855
17950;BME280;9100;48.700;9.316;2022-07-23T04:01:30;97796.3;;;24.34;85.623
17950;BME280;9100;48.700;9.316;2022-07-23T04:02:29;97796.3;;;24.34;85.602
17950;BME280;9100;48.700;9.316;2022-07-23T04:03:29;97803.3;;;24.28;85.261
17950;BME280;9100;48.700;9.316;2022-07-23T04:04:07;97799.40000000001;;;24.26;85.376
17950;BME280;9100;48.700;9.316;2022-07-23T04:04:29;97801.3;;;24.25;85.673
17950;BME280;9100;48.700;9.316;2022-07-23T04:05:29;97809.6;;;24.22;85.941
17950;BME280;9100;48.700;9.316;2022-07-23T04:06:30;97760.7;;;23.87;86.606
17950;BME280;9100;48.700;9.316;2022-07-23T04:07:29;97812.2;;;24.17;88.123
17950;BME280;9100;48.700;9.316;2022-07-23T04:08:29;97808.3;;;24.14;89.962
17950;BME280;9100;48.700;9.316;2022-07-23T04:09:07;97803.59999999999;;;24.11;90.965
17950;BME280;9100;48.700;9.316;2022-07-23T04:09:29;97809.79999999999;;;24.1;91.816
17950;BME280;9100;48.700;9.316;2022-07-23T04:10:29;97806.7;;;24.08;93.566
17950;BME280;9100;48.700;9.316;2022-07-23T04:11:30;97812.2;;;24.07;94.321
17950;BME280;9100;48.700;9.316;2022-07-23T04:12:29;97811.40000000001;;;24.06;94.944
17950;BME280;9100;48.700;9.316;2022-07-23T04:13:30;97813;;;24.07;95.552
17950;BME280;9100;48.700;9.316;2022-07-23T04:14:07;97812.2;;;24.07;95.692
17950;BME280;9100;48.700;9.316;2022-07-23T04:14:30;97809.3;;;24.08;95.76
17950;BME280;9100;48.700;9.316;2022-07-23T04:15:30;97810.90000000001;;;24.09;95.906
17950;BME280;9100;48.700;9.316;2022-07-23T04:16:30;97814.5;;;24.08;96.615
17950;BME280;9100;48.700;9.316;2022-07-23T04:17:30;97807.8;;;24.07;97.427
17950;BME280;9100;48.700;9.316;2022-07-23T04:18:30;97809.79999999999;;;24.05;97.631
17950;BME280;9100;48.700;9.316;2022-07-23T04:19:07;97803.8;;;24.05;97.848
17950;BME280;9100;48.700;9.316;2022-07-23T04:19:30;97807.2;;;24.05;98.267
17950;BME280;9100;48.700;9.316;2022-07-23T04:20:30;97806.7;;;24.03;98.361
17950;BME280;9100;48.700;9.316;2022-07-23T04:21:30;97816.9;;;24;98.372